OIFS 
Shahrekord Airport
Shahrekord, Iran 
ICAOIATAStatus
OIFSCQDOperational
LatitudeLongitude
32° 17' 49" N50° 50' 31" E
32.29719950.842201
Local Time (DST+5)UTC (GMT+4)
04-25-2014 11:13 am04-25-2014 06:43
Sunrise-SunsetLocalUTC
Begin Civil Twilight05:58 am01:28
Sunrise06:24 am01:54
Sunset07:44 pm15:14
End Civil Twilight08:10 pm15:40

Current Weather

METARObservedFlight Conditions

OIFS 250600Z 00000KT CAVOK 16/01 Q1025

Fri, Apr 25, 2014 @ 06:00 UTC(Z)

(43 Minutes ago)

VFR

(Visual Flight Rules)

WindVisibilityCloudsConditions
Calm
10 km or more
  • Clear skies
  • No significant weather
TemperaturesReadingsPrecipitation
Current Temp16°C (61°F)
Dewpoint1°C (34°F)
Humidity36%
Altimeter30.27"Hg
Sea Level Pressure1025mb
Field Elevation6817.59'
None Recorded

Additional weather within a 185.2km radius of OIFS

Location METAR
OIFM

108km E (062°)

43 minutes ago
VFR VFR    MVFR MVFR    IFR IFR    LIFR LIFR    Unknown Unknown

Previous 24 hour Weather Graphs

  Loading...

CheckWX.com is intended as a tool to help pilots better visualize weather data.   It is not intended as a substitute for an official weather briefing obtained from a Flight Service Station.
CheckWX.com does not meet the FAA requirements for an official pre-flight weather briefing.   Therefore, it's important that pilots still call and obtain an official FSS pre-flight weather briefing.